Time;durP1;ratioP1;P1;durP2;ratioP2;P2;SDS_P1;SDS_P2;PMS_P1;PMS_P2;Temp;Humidity;BMP_temperature;BMP_pressure;BME280_temperature;BME280_humidity;BME280_pressure;Samples;Min_cycle;Max_cycle;Signal;HPM_P1;HPM_P2
2022/03/21 00:00:54;;;;;;;20.50;14.43;;;4.00;99.90;;;;;;4949844;28;20904;-50
2022/03/21 00:03:24;;;;;;;20.87;14.30;;;4.00;99.90;;;;;;4949287;28;20951;-50
2022/03/21 00:05:51;;;;;;;21.43;15.17;;;4.00;99.90;;;;;;4954502;29;20489;-51
2022/03/21 00:08:22;;;;;;;16.90;13.53;;;4.00;99.90;;;;;;4950022;28;20490;-50
2022/03/21 00:10:49;;;;;;;16.53;13.63;;;4.00;99.90;;;;;;4951254;28;21040;-50
2022/03/21 00:13:16;;;;;;;20.10;13.90;;;3.90;99.90;;;;;;4949852;28;20463;-51
2022/03/21 00:15:43;;;;;;;20.77;14.53;;;3.90;99.90;;;;;;4949749;28;20906;-50
2022/03/21 00:18:13;;;;;;;18.23;14.97;;;3.80;99.90;;;;;;4948149;28;20478;-50
2022/03/21 00:20:41;;;;;;;20.60;13.97;;;3.80;99.90;;;;;;4947049;28;20474;-51
2022/03/21 00:23:08;;;;;;;16.23;13.23;;;3.70;99.90;;;;;;4950445;28;20889;-49
2022/03/21 00:25:36;;;;;;;27.93;13.60;;;3.60;99.90;;;;;;4949801;28;20521;-51
2022/03/21 00:28:03;;;;;;;18.73;13.50;;;3.50;99.90;;;;;;4948264;28;20525;-50
2022/03/21 00:30:30;;;;;;;24.17;14.47;;;3.40;99.90;;;;;;4948057;28;20525;-51
2022/03/21 00:32:58;;;;;;;19.60;14.17;;;3.40;99.90;;;;;;4948715;28;20467;-49
2022/03/21 00:35:25;;;;;;;24.67;14.00;;;3.50;99.90;;;;;;4952044;28;21003;-50
2022/03/21 00:37:52;;;;;;;17.97;13.70;;;3.40;99.90;;;;;;4947645;28;21018;-50
2022/03/21 00:40:19;;;;;;;18.07;14.23;;;3.40;99.90;;;;;;4949688;28;20872;-50
2022/03/21 00:42:49;;;;;;;19.77;14.20;;;3.40;99.90;;;;;;4948117;28;20470;-50
2022/03/21 00:45:18;;;;;;;19.33;14.13;;;3.50;99.90;;;;;;4949959;28;20992;-50
2022/03/21 00:47:47;;;;;;;19.63;15.17;;;3.40;99.90;;;;;;4948314;28;20495;-50
2022/03/21 00:50:15;;;;;;;19.50;14.37;;;3.40;99.90;;;;;;4947189;28;20553;-50
2022/03/21 00:52:43;;;;;;;15.93;13.70;;;3.40;99.90;;;;;;4948786;28;20485;-50
2022/03/21 00:55:11;;;;;;;19.30;13.90;;;3.40;99.90;;;;;;4948056;28;20533;-50
2022/03/21 00:57:40;;;;;;;19.83;13.33;;;3.30;99.90;;;;;;4946076;28;20464;-51
2022/03/21 01:00:12;;;;;;;20.67;14.20;;;3.30;99.90;;;;;;4951178;28;20497;-50
2022/03/21 01:02:40;;;;;;;16.87;13.80;;;3.30;99.90;;;;;;4947381;28;20569;-51
2022/03/21 01:05:08;;;;;;;20.00;14.43;;;3.20;99.90;;;;;;4948992;28;20501;-52
2022/03/21 01:07:35;;;;;;;22.37;14.10;;;3.20;99.90;;;;;;4947405;28;20498;-50
2022/03/21 01:10:04;;;;;;;21.40;13.97;;;3.20;99.90;;;;;;4947500;28;20490;-50
2022/03/21 01:12:31;;;;;;;17.80;13.50;;;3.20;99.90;;;;;;4947514;28;20466;-52
2022/03/21 01:14:57;;;;;;;18.63;14.33;;;3.20;99.90;;;;;;4947430;28;20506;-50
2022/03/21 01:17:26;;;;;;;18.60;14.47;;;3.20;99.90;;;;;;4948287;28;22306;-50
2022/03/21 01:19:53;;;;;;;21.90;14.00;;;3.20;99.90;;;;;;4946041;28;20972;-50
2022/03/21 01:22:20;;;;;;;16.37;13.37;;;3.10;99.90;;;;;;4948262;28;21287;-50
2022/03/21 01:24:47;;;;;;;19.40;15.13;;;3.00;99.90;;;;;;4948940;28;20501;-50
2022/03/21 01:27:13;;;;;;;18.07;13.83;;;3.00;99.90;;;;;;4948526;28;20557;-50
2022/03/21 01:29:40;;;;;;;17.77;13.93;;;2.90;99.90;;;;;;4947588;28;20490;-50
2022/03/21 01:32:08;;;;;;;24.03;16.57;;;2.90;99.90;;;;;;4946512;28;20462;-50
2022/03/21 01:34:36;;;;;;;19.00;14.27;;;3.00;99.90;;;;;;4948866;28;20537;-50
2022/03/21 01:37:02;;;;;;;19.07;14.37;;;2.90;99.90;;;;;;4948480;28;20482;-50
2022/03/21 01:39:29;;;;;;;18.87;14.03;;;2.90;99.90;;;;;;4949205;28;20518;-50
2022/03/21 01:41:55;;;;;;;15.67;13.07;;;3.00;99.90;;;;;;4947882;28;20502;-50
2022/03/21 01:44:22;;;;;;;15.80;14.10;;;2.90;99.90;;;;;;4949233;28;20467;-51
2022/03/21 01:46:49;;;;;;;21.90;14.67;;;2.80;99.90;;;;;;4947391;28;20565;-50
2022/03/21 01:49:17;;;;;;;21.80;15.17;;;2.80;99.90;;;;;;4948629;28;20897;-50
2022/03/21 01:51:45;;;;;;;23.60;15.37;;;2.70;99.90;;;;;;4948169;28;20832;-50
2022/03/21 01:56:58;;;;;;;18.03;14.00;;;2.50;99.90;;;;;;4951028;28;20501;-50
2022/03/21 01:59:26;;;;;;;22.83;15.50;;;2.50;99.90;;;;;;4947513;28;20482;-50
2022/03/21 02:01:53;;;;;;;19.27;13.13;;;2.40;99.90;;;;;;4947117;28;20469;-50
2022/03/21 02:04:19;;;;;;;19.07;14.37;;;2.50;99.90;;;;;;4946992;28;20470;-51
2022/03/21 02:06:47;;;;;;;18.37;14.80;;;2.50;99.90;;;;;;4944733;28;20529;-50
2022/03/21 02:09:14;;;;;;;17.47;13.60;;;2.40;99.90;;;;;;4947715;28;20459;-50
2022/03/21 02:11:41;;;;;;;18.83;13.40;;;2.40;99.90;;;;;;4946618;28;20486;-50
2022/03/21 02:14:10;;;;;;;18.27;14.40;;;2.40;99.90;;;;;;4947303;28;20922;-50
2022/03/21 02:16:38;;;;;;;20.13;15.20;;;2.40;99.90;;;;;;4945199;28;20961;-50
2022/03/21 02:19:14;;;;;;;19.43;14.10;;;2.40;99.90;;;;;;4944551;28;20517;-49
2022/03/21 02:21:52;;;;;;;25.40;14.40;;;2.40;99.90;;;;;;4947837;28;20557;-51
2022/03/21 02:24:27;;;;;;;25.53;13.97;;;2.50;99.90;;;;;;4945432;28;20537;-50
2022/03/21 02:26:57;;;;;;;21.10;14.50;;;2.50;99.90;;;;;;4946563;28;20486;-51
2022/03/21 02:29:26;;;;;;;20.77;14.60;;;2.50;99.90;;;;;;4944086;28;20494;-50
2022/03/21 02:31:54;;;;;;;21.10;14.87;;;2.50;99.90;;;;;;4945865;28;20513;-50
2022/03/21 02:34:23;;;;;;;18.00;14.33;;;2.60;99.90;;;;;;4942009;28;20465;-50
2022/03/21 02:36:51;;;;;;;18.63;13.23;;;2.60;99.90;;;;;;4945980;28;20545;-50
2022/03/21 02:39:19;;;;;;;23.03;16.43;;;2.60;99.90;;;;;;4947154;28;20482;-50
2022/03/21 02:41:46;;;;;;;20.53;14.00;;;2.60;99.90;;;;;;4949980;28;20466;-52
2022/03/21 02:44:14;;;;;;;18.47;12.90;;;2.50;99.90;;;;;;4946759;28;20495;-51
2022/03/21 02:46:40;;;;;;;21.20;15.43;;;2.60;99.90;;;;;;4946756;28;20482;-51
2022/03/21 02:49:07;;;;;;;18.67;14.97;;;2.50;99.90;;;;;;4947047;29;20518;-50
2022/03/21 02:51:39;;;;;;;19.50;14.97;;;2.60;99.90;;;;;;4939339;29;20529;-50
2022/03/21 02:54:06;;;;;;;20.47;15.53;;;2.50;99.90;;;;;;4943699;28;20462;-50
2022/03/21 02:56:33;;;;;;;20.37;15.23;;;2.60;99.90;;;;;;4949365;28;20861;-50
2022/03/21 02:59:00;;;;;;;21.57;14.97;;;2.60;99.90;;;;;;4948556;28;20658;-50
2022/03/21 03:01:28;;;;;;;20.07;15.13;;;2.60;99.90;;;;;;4947344;28;20517;-50
2022/03/21 03:03:54;;;;;;;19.90;15.37;;;2.60;99.90;;;;;;4950185;28;20462;-50
2022/03/21 03:06:21;;;;;;;21.47;15.60;;;2.60;99.90;;;;;;4950440;28;20486;-50
2022/03/21 03:08:48;;;;;;;21.27;14.80;;;2.50;99.90;;;;;;4948991;28;20549;-51
2022/03/21 03:11:14;;;;;;;21.77;15.27;;;2.50;99.90;;;;;;4946109;28;20470;-50
2022/03/21 03:13:41;;;;;;;22.07;16.20;;;2.50;99.90;;;;;;4949280;28;20473;-50
2022/03/21 03:16:07;;;;;;;22.20;15.37;;;2.50;99.90;;;;;;4948289;28;22540;-50
2022/03/21 03:18:35;;;;;;;20.90;16.03;;;2.50;99.90;;;;;;4950790;28;20502;-50
2022/03/21 03:21:02;;;;;;;28.70;16.63;;;2.50;99.90;;;;;;4948564;28;20493;-50
2022/03/21 03:23:31;;;;;;;19.17;15.23;;;2.50;99.90;;;;;;4945731;28;20498;-50
2022/03/21 03:26:00;;;;;;;19.80;15.73;;;2.50;99.90;;;;;;4948929;28;21090;-50
2022/03/21 03:28:27;;;;;;;20.17;15.23;;;2.50;99.90;;;;;;4949247;28;20501;-50
2022/03/21 03:34:17;;;;;;;18.67;14.40;;;2.40;99.90;;;;;;4944452;28;20485;-51
2022/03/21 03:36:44;;;;;;;21.73;16.53;;;2.40;99.90;;;;;;4950497;28;20589;-51
2022/03/21 03:39:10;;;;;;;21.20;16.23;;;2.40;99.90;;;;;;4948698;29;20521;-51
2022/03/21 03:41:37;;;;;;;21.00;16.23;;;2.30;99.90;;;;;;4950828;28;20494;-51
2022/03/21 03:44:04;;;;;;;19.93;15.50;;;2.30;99.90;;;;;;4951377;28;20549;-51
2022/03/21 03:46:30;;;;;;;23.13;16.00;;;2.30;99.90;;;;;;4951869;28;21023;-51
2022/03/21 03:48:57;;;;;;;25.73;16.83;;;2.20;99.90;;;;;;4950417;28;20525;-51
2022/03/21 03:51:25;;;;;;;20.40;15.80;;;2.20;99.90;;;;;;4952070;28;20553;-50
2022/03/21 03:53:51;;;;;;;26.87;17.30;;;2.20;99.90;;;;;;4948611;28;20458;-50
2022/03/21 03:56:18;;;;;;;25.10;17.40;;;2.20;99.90;;;;;;4950427;28;20505;-50
2022/03/21 03:58:44;;;;;;;28.93;17.77;;;2.20;99.90;;;;;;4951842;28;20565;-50
2022/03/21 04:01:11;;;;;;;23.43;16.87;;;2.20;99.90;;;;;;4949544;28;20502;-50
2022/03/21 04:03:46;;;;;;;29.77;17.40;;;2.10;99.90;;;;;;4946354;28;20557;-50
2022/03/21 04:06:14;;;;;;;24.43;16.50;;;2.10;99.90;;;;;;4947954;28;20493;-51
2022/03/21 04:08:42;;;;;;;23.17;17.70;;;2.10;99.90;;;;;;4950094;28;20501;-50
2022/03/21 04:11:09;;;;;;;21.70;15.90;;;2.00;99.90;;;;;;4949525;28;20498;-50
2022/03/21 04:13:36;;;;;;;26.80;19.00;;;2.10;99.90;;;;;;4947519;29;20524;-50
2022/03/21 04:16:02;;;;;;;28.27;18.33;;;2.00;99.90;;;;;;4948071;28;20489;-50
2022/03/21 04:18:29;;;;;;;25.67;18.00;;;2.10;99.90;;;;;;4950725;28;20549;-51
2022/03/21 04:20:55;;;;;;;26.57;19.03;;;2.00;99.90;;;;;;4949506;29;20580;-51
2022/03/21 04:23:22;;;;;;;23.53;17.23;;;2.10;99.90;;;;;;4948964;28;20550;-49
2022/03/21 04:25:50;;;;;;;28.07;18.50;;;2.10;99.90;;;;;;4947043;28;20581;-52
2022/03/21 04:28:17;;;;;;;25.73;18.27;;;2.00;99.90;;;;;;4948210;28;20554;-50
2022/03/21 04:30:44;;;;;;;35.53;18.93;;;2.00;99.90;;;;;;4971488;23;20883;-49
2022/03/21 04:33:12;;;;;;;26.67;18.47;;;2.00;99.90;;;;;;4931467;29;20964;-49
2022/03/21 04:35:39;;;;;;;24.97;17.67;;;1.90;99.90;;;;;;4934476;29;20988;-49
2022/03/21 04:38:13;;;;;;;26.13;17.77;;;2.00;99.90;;;;;;4928960;29;20465;-49
2022/03/21 04:40:41;;;;;;;24.70;18.17;;;1.90;99.90;;;;;;4930061;29;20993;-49
2022/03/21 04:43:10;;;;;;;21.80;16.50;;;1.90;99.90;;;;;;4931672;29;20543;-49
2022/03/21 04:45:37;;;;;;;24.83;17.47;;;1.90;99.90;;;;;;4928896;29;20554;-48
2022/03/21 04:48:04;;;;;;;24.63;17.93;;;1.90;99.90;;;;;;4930905;29;20847;-49
2022/03/21 04:50:30;;;;;;;26.77;19.10;;;1.90;99.90;;;;;;4929079;29;20558;-48
2022/03/21 04:52:57;;;;;;;23.77;17.27;;;1.90;99.90;;;;;;4931823;29;20529;-49
2022/03/21 04:55:24;;;;;;;27.10;16.73;;;1.90;99.90;;;;;;4930465;29;20459;-49
2022/03/21 04:57:50;;;;;;;28.33;18.73;;;1.80;99.90;;;;;;4930882;29;20991;-50
2022/03/21 05:00:19;;;;;;;22.77;16.97;;;1.80;99.90;;;;;;4929352;29;20582;-49
2022/03/21 05:02:45;;;;;;;25.07;17.67;;;1.80;99.90;;;;;;4932052;29;20577;-49
2022/03/21 05:05:12;;;;;;;23.50;17.80;;;1.80;99.90;;;;;;4929477;29;20562;-49
2022/03/21 05:07:42;;;;;;;30.00;19.13;;;1.80;99.90;;;;;;4932210;29;20557;-48
2022/03/21 05:10:10;;;;;;;25.40;18.07;;;1.80;99.90;;;;;;4929867;29;20463;-48
2022/03/21 05:12:38;;;;;;;23.03;16.50;;;1.80;99.90;;;;;;4928414;29;20511;-49
2022/03/21 05:15:06;;;;;;;28.47;18.50;;;1.70;99.90;;;;;;4927285;29;20464;-49
2022/03/21 05:17:35;;;;;;;23.17;16.83;;;1.80;99.90;;;;;;4928693;29;20467;-49
2022/03/21 05:20:02;;;;;;;24.13;18.17;;;1.70;99.90;;;;;;4929636;29;20483;-49
2022/03/21 05:22:28;;;;;;;27.17;18.23;;;1.80;99.90;;;;;;4929080;29;21086;-49
2022/03/21 05:35:55;;;;;;;27.13;17.60;;;1.80;99.90;;;;;;4928434;29;20458;-50
2022/03/21 05:38:24;;;;;;;30.20;18.37;;;1.80;99.90;;;;;;4928972;29;20459;-50
2022/03/21 05:40:52;;;;;;;25.80;17.50;;;1.90;99.90;;;;;;4925246;28;20573;-49
2022/03/21 05:43:18;;;;;;;26.43;16.73;;;1.90;99.90;;;;;;4922931;29;20471;-49
2022/03/21 05:45:46;;;;;;;30.80;18.50;;;1.90;99.90;;;;;;4923054;29;20828;-49
2022/03/21 05:50:58;;;;;;;24.33;18.00;;;1.90;99.90;;;;;;4928508;29;20449;-49
2022/03/21 05:53:25;;;;;;;27.27;18.20;;;2.00;99.90;;;;;;4932464;29;20550;-49
2022/03/21 05:55:51;;;;;;;25.60;17.30;;;2.10;99.90;;;;;;4933481;29;20882;-50
2022/03/21 05:58:18;;;;;;;28.83;17.40;;;2.30;99.90;;;;;;4934004;29;20555;-49
2022/03/21 06:00:45;;;;;;;25.10;17.70;;;2.50;99.90;;;;;;4927972;29;20583;-50
2022/03/21 06:03:11;;;;;;;32.97;19.70;;;2.80;99.90;;;;;;4927844;29;20550;-49
2022/03/21 06:05:40;;;;;;;28.80;18.50;;;2.90;99.90;;;;;;4930913;29;21041;-50
2022/03/21 06:08:07;;;;;;;30.13;18.13;;;2.90;99.90;;;;;;4927442;29;20596;-50
2022/03/21 06:10:33;;;;;;;24.50;17.50;;;2.90;99.90;;;;;;4927149;29;20471;-49
2022/03/21 06:13:01;;;;;;;31.33;19.87;;;3.00;99.90;;;;;;4922278;29;20491;-49
2022/03/21 06:15:29;;;;;;;30.23;18.60;;;2.90;99.90;;;;;;4929247;29;20471;-49
2022/03/21 06:17:59;;;;;;;26.40;19.20;;;2.90;99.90;;;;;;4928980;29;20560;-49
2022/03/21 06:20:26;;;;;;;27.07;18.63;;;3.00;99.90;;;;;;4928051;29;20477;-49
2022/03/21 06:22:54;;;;;;;26.97;18.17;;;3.00;99.90;;;;;;4927728;29;20894;-49
2022/03/21 06:25:21;;;;;;;27.97;18.33;;;3.10;99.90;;;;;;4925988;29;20499;-48
2022/03/21 06:27:48;;;;;;;24.57;18.30;;;3.30;99.90;;;;;;4927139;29;20494;-49
2022/03/21 06:30:15;;;;;;;26.97;18.30;;;3.40;99.90;;;;;;4927724;29;20463;-49
2022/03/21 06:32:42;;;;;;;27.10;18.83;;;3.50;99.90;;;;;;4929432;29;20569;-48
2022/03/21 06:35:10;;;;;;;27.20;17.40;;;3.50;99.90;;;;;;4925648;29;20511;-49
2022/03/21 06:37:38;;;;;;;29.90;17.73;;;3.40;99.90;;;;;;4929276;29;20467;-48
2022/03/21 06:40:07;;;;;;;29.63;18.60;;;3.50;99.90;;;;;;4931874;29;20503;-49
2022/03/21 06:42:34;;;;;;;24.50;17.77;;;3.50;99.90;;;;;;4928795;29;20539;-49
2022/03/21 06:45:02;;;;;;;26.17;17.60;;;3.60;99.90;;;;;;4935788;29;20560;-49
2022/03/21 06:47:28;;;;;;;25.43;17.67;;;3.70;99.90;;;;;;4936839;29;20503;-49
2022/03/21 06:49:55;;;;;;;30.13;18.90;;;3.90;99.90;;;;;;4931428;29;20490;-49
2022/03/21 06:52:22;;;;;;;25.80;18.07;;;4.00;99.90;;;;;;4929167;29;21075;-49
2022/03/21 06:54:49;;;;;;;28.17;17.83;;;4.10;99.90;;;;;;4931901;29;20559;-49
2022/03/21 06:57:18;;;;;;;26.97;18.00;;;4.10;99.90;;;;;;4933484;29;20507;-49
2022/03/21 06:59:45;;;;;;;22.77;16.80;;;4.10;99.90;;;;;;4933867;29;21400;-48
2022/03/21 07:02:12;;;;;;;28.30;18.70;;;4.20;99.90;;;;;;4931750;29;20864;-49
2022/03/21 07:04:39;;;;;;;37.07;17.87;;;4.40;99.90;;;;;;4933401;29;20463;-48
2022/03/21 07:07:05;;;;;;;42.43;18.70;;;4.50;99.90;;;;;;4930769;29;20554;-49
2022/03/21 07:09:32;;;;;;;24.93;17.60;;;4.60;99.90;;;;;;4924897;29;20559;-49
2022/03/21 07:11:58;;;;;;;25.63;17.07;;;4.70;99.90;;;;;;4937308;28;20566;-48
2022/03/21 07:14:26;;;;;;;29.17;17.23;;;4.80;99.90;;;;;;4930221;29;20574;-49
2022/03/21 07:16:53;;;;;;;27.70;17.10;;;4.80;99.90;;;;;;4930049;29;20599;-49
2022/03/21 07:19:19;;;;;;;25.00;16.63;;;5.10;99.90;;;;;;4928292;29;20546;-49
2022/03/21 07:21:46;;;;;;;25.87;18.23;;;5.20;99.90;;;;;;4932421;29;20487;-49
2022/03/21 07:24:13;;;;;;;28.63;17.10;;;5.40;99.90;;;;;;4932129;29;20521;-49
2022/03/21 07:26:40;;;;;;;29.00;17.07;;;5.90;99.90;;;;;;4930849;29;20467;-49
2022/03/21 07:29:07;;;;;;;24.63;17.00;;;6.30;99.90;;;;;;4933088;29;20541;-49
2022/03/21 07:31:35;;;;;;;30.37;16.70;;;6.60;99.90;;;;;;4931711;29;20559;-49
2022/03/21 07:34:02;;;;;;;24.63;17.67;;;6.80;99.90;;;;;;4932793;29;20471;-48
2022/03/21 07:36:30;;;;;;;23.30;18.63;;;7.00;99.90;;;;;;4929928;29;20553;-49
2022/03/21 07:38:57;;;;;;;31.00;16.70;;;7.10;99.90;;;;;;4931311;29;20463;-49
2022/03/21 07:41:26;;;;;;;21.70;16.77;;;6.90;99.90;;;;;;4931004;29;20494;-49
2022/03/21 07:43:54;;;;;;;29.83;17.47;;;7.30;99.90;;;;;;4944508;29;20448;-50
2022/03/21 07:49:07;;;;;;;22.20;15.00;;;7.80;99.90;;;;;;4934187;29;20834;-49
2022/03/21 07:51:33;;;;;;;18.90;14.87;;;7.70;99.90;;;;;;4936633;29;20926;-50
2022/03/21 07:54:00;;;;;;;20.10;14.80;;;7.60;99.90;;;;;;4934313;29;20547;-49
2022/03/21 07:56:26;;;;;;;20.00;14.23;;;7.80;99.90;;;;;;4933874;29;20567;-48
2022/03/21 07:58:53;;;;;;;34.40;15.93;;;8.00;99.90;;;;;;4935102;29;20499;-49
2022/03/21 08:01:19;;;;;;;20.43;14.50;;;8.10;99.90;;;;;;4931005;29;20585;-49
2022/03/21 08:03:46;;;;;;;24.73;13.73;;;8.20;99.90;;;;;;4934748;29;20451;-48
2022/03/21 08:06:14;;;;;;;30.33;15.10;;;8.50;99.90;;;;;;4932794;29;20467;-48
2022/03/21 08:08:41;;;;;;;19.70;14.93;;;8.70;99.90;;;;;;4936276;29;20554;-48
2022/03/21 08:11:09;;;;;;;17.67;12.13;;;9.00;99.90;;;;;;4933941;29;20574;-49
2022/03/21 08:13:35;;;;;;;16.73;11.43;;;8.70;99.90;;;;;;4932862;29;20474;-49
2022/03/21 08:16:04;;;;;;;16.30;12.00;;;8.60;99.90;;;;;;4935300;29;20559;-48
2022/03/21 08:18:30;;;;;;;17.23;11.27;;;8.60;99.90;;;;;;4931205;29;20475;-49
2022/03/21 08:20:57;;;;;;;16.63;11.03;;;8.40;99.90;;;;;;4933576;29;20545;-48
2022/03/21 08:23:25;;;;;;;14.40;10.67;;;9.00;99.90;;;;;;4934729;29;20539;-50
2022/03/21 08:25:52;;;;;;;13.33;9.20;;;8.90;99.90;;;;;;4937044;29;20474;-49
2022/03/21 08:28:19;;;;;;;14.67;11.00;;;9.10;99.90;;;;;;4934905;29;20462;-50
2022/03/21 08:30:45;;;;;;;17.33;9.50;;;9.10;99.90;;;;;;4931674;29;20962;-50
2022/03/21 08:33:12;;;;;;;19.73;10.20;;;9.20;99.90;;;;;;4937024;28;20547;-49
2022/03/21 08:35:40;;;;;;;16.37;10.23;;;9.10;99.90;;;;;;4935088;29;20543;-48
2022/03/21 08:38:08;;;;;;;12.33;9.33;;;9.10;99.90;;;;;;4935141;29;20546;-48
2022/03/21 08:40:37;;;;;;;14.97;9.50;;;9.00;99.90;;;;;;4933922;29;20566;-49
2022/03/21 08:43:04;;;;;;;9.70;8.43;;;9.10;99.90;;;;;;4937920;29;20494;-49
2022/03/21 08:45:30;;;;;;;12.57;10.50;;;9.80;99.90;;;;;;4937593;29;20570;-50
2022/03/21 08:47:57;;;;;;;14.03;10.43;;;10.20;99.90;;;;;;4931019;29;20463;-48
2022/03/21 08:50:24;;;;;;;10.90;9.10;;;10.70;99.90;;;;;;4934685;29;20527;-49
2022/03/21 08:52:51;;;;;;;13.03;10.13;;;10.50;99.90;;;;;;4933444;29;20562;-49
2022/03/21 08:55:17;;;;;;;11.83;10.53;;;10.70;99.90;;;;;;4931437;29;22508;-49
2022/03/21 08:57:45;;;;;;;14.20;11.20;;;11.50;99.90;;;;;;4926306;29;20578;-52
2022/03/21 09:00:13;;;;;;;12.03;8.83;;;12.00;99.90;;;;;;4932173;29;20939;-53
2022/03/21 09:02:41;;;;;;;14.90;10.80;;;12.70;99.90;;;;;;4932580;29;20483;-49
2022/03/21 09:05:12;;;;;;;15.80;10.03;;;12.70;99.90;;;;;;4928325;29;20481;-49
2022/03/21 09:07:39;;;;;;;13.77;10.17;;;13.00;99.90;;;;;;4932771;29;20550;-49
2022/03/21 09:10:07;;;;;;;11.27;8.47;;;12.80;99.90;;;;;;4933450;29;20490;-49
2022/03/21 09:12:33;;;;;;;12.70;10.27;;;12.80;99.90;;;;;;4928140;29;21002;-49
2022/03/21 09:15:01;;;;;;;17.40;9.73;;;13.00;99.90;;;;;;4932747;29;20495;-49
2022/03/21 09:17:28;;;;;;;13.80;8.67;;;13.80;99.90;;;;;;4929197;29;20554;-49
2022/03/21 09:19:55;;;;;;;12.50;10.27;;;13.50;99.90;;;;;;4935722;29;21346;-49
2022/03/21 09:22:22;;;;;;;13.70;10.07;;;13.60;99.90;;;;;;4928661;29;21084;-49
2022/03/21 09:24:49;;;;;;;21.07;10.07;;;14.50;99.90;;;;;;4934855;29;20466;-49
2022/03/21 09:27:16;;;;;;;13.80;9.60;;;14.50;99.90;;;;;;4933095;29;20471;-49
2022/03/21 09:29:43;;;;;;;16.33;9.23;;;14.80;99.90;;;;;;4934587;29;20466;-49
2022/03/21 09:32:11;;;;;;;12.80;9.43;;;14.50;99.90;;;;;;4931210;29;21051;-48
2022/03/21 09:34:39;;;;;;;12.23;9.13;;;14.10;99.90;;;;;;4933805;29;20558;-48
2022/03/21 09:37:06;;;;;;;13.33;9.10;;;14.50;99.90;;;;;;4929083;29;20968;-49
2022/03/21 09:39:33;;;;;;;13.47;9.07;;;15.10;99.90;;;;;;4930168;29;20491;-49
2022/03/21 09:42:01;;;;;;;22.30;8.50;;;14.10;99.90;;;;;;4927805;29;20491;-49
2022/03/21 09:44:28;;;;;;;16.10;9.27;;;14.20;99.90;;;;;;4930805;29;20562;-49
2022/03/21 09:46:56;;;;;;;11.17;9.00;;;13.50;99.90;;;;;;4932494;29;20482;-49
2022/03/21 09:49:28;;;;;;;9.70;8.70;;;13.30;99.90;;;;;;4932080;29;20558;-49
2022/03/21 09:51:56;;;;;;;12.90;10.03;;;13.90;99.90;;;;;;4931464;29;20487;-49
2022/03/21 09:54:23;;;;;;;9.83;8.83;;;13.50;99.90;;;;;;4932661;29;20543;-48
2022/03/21 09:56:50;;;;;;;14.10;8.67;;;13.50;99.90;;;;;;4931529;29;20467;-49
2022/03/21 09:59:16;;;;;;;10.63;9.30;;;13.30;99.90;;;;;;4931212;29;20499;-49
2022/03/21 10:01:44;;;;;;;16.23;9.40;;;14.40;99.90;;;;;;4929812;29;20573;-49
2022/03/21 10:04:10;;;;;;;13.20;9.80;;;13.60;99.90;;;;;;4934931;29;20495;-49
2022/03/21 10:06:40;;;;;;;14.87;8.97;;;14.30;99.90;;;;;;4933923;29;20529;-49
2022/03/21 10:09:10;;;;;;;16.10;9.30;;;15.00;99.90;;;;;;4930386;29;20956;-49
2022/03/21 10:11:37;;;;;;;13.33;9.17;;;14.60;99.90;;;;;;4933937;29;20507;-49
2022/03/21 10:14:27;;;;;;;14.13;8.00;;;15.10;99.90;;;;;;4933262;29;20554;-48
2022/03/21 10:16:56;;;;;;;13.80;9.10;;;14.40;99.90;;;;;;4932943;29;20463;-49
2022/03/21 10:19:23;;;;;;;10.73;8.27;;;13.80;99.90;;;;;;4933290;29;20547;-49
2022/03/21 10:22:07;;;;;;;12.87;8.27;;;13.90;99.90;;;;;;4933637;29;20537;-50
2022/03/21 10:24:36;;;;;;;10.33;7.80;;;14.80;99.90;;;;;;4933733;29;20481;-50
2022/03/21 10:27:03;;;;;;;11.10;8.33;;;15.90;99.90;;;;;;4920322;29;20635;-50
2022/03/21 10:29:31;;;;;;;11.60;8.67;;;16.30;99.90;;;;;;4930029;29;20545;-50
2022/03/21 10:31:58;;;;;;;19.20;9.20;;;15.80;99.90;;;;;;4953629;23;20504;-52
2022/03/21 10:34:30;;;;;;;17.43;9.50;;;15.60;99.90;;;;;;4972849;28;20461;-52
2022/03/21 10:37:01;;;;;;;10.63;8.30;;;15.00;99.90;;;;;;4972303;28;20457;-52
2022/03/21 10:39:31;;;;;;;10.60;8.23;;;14.30;99.90;;;;;;4970803;28;20548;-52
2022/03/21 10:42:01;;;;;;;11.47;8.53;;;15.20;99.90;;;;;;4964497;28;20580;-52
2022/03/21 10:44:28;;;;;;;14.10;8.33;;;15.80;99.90;;;;;;4962771;28;20986;-52
2022/03/21 10:46:56;;;;;;;11.00;8.63;;;15.80;99.90;;;;;;4962288;28;20497;-51
2022/03/21 10:49:43;;;;;;;17.40;8.50;;;16.70;99.90;;;;;;4964658;28;20844;-53
2022/03/21 10:52:16;;;;;;;16.27;10.00;;;16.70;99.90;;;;;;4958631;28;20481;-52
2022/03/21 10:54:48;;;;;;;12.10;8.47;;;16.50;99.90;;;;;;4971227;28;20454;-52
2022/03/21 10:57:30;;;;;;;20.47;10.47;;;16.70;99.90;;;;;;4969492;28;20466;-51
2022/03/21 11:00:14;;;;;;;12.53;8.93;;;16.20;99.90;;;;;;4955077;28;20469;-51
2022/03/21 11:02:54;;;;;;;16.33;8.70;;;15.20;99.90;;;;;;4967818;28;20573;-52
2022/03/21 11:05:22;;;;;;;11.33;8.60;;;14.70;99.90;;;;;;4972195;28;20449;-51
2022/03/21 11:07:49;;;;;;;10.67;8.27;;;13.90;99.90;;;;;;4965206;28;21276;-52
2022/03/21 11:10:18;;;;;;;8.87;7.97;;;13.50;99.90;;;;;;4965699;28;20497;-52
2022/03/21 11:12:45;;;;;;;13.77;9.50;;;13.10;99.90;;;;;;4968496;28;21065;-52
2022/03/21 11:15:13;;;;;;;12.73;8.37;;;13.00;99.90;;;;;;4969733;28;20484;-51
2022/03/21 11:17:41;;;;;;;12.83;8.47;;;12.80;99.90;;;;;;4965218;28;20486;-51
2022/03/21 11:20:10;;;;;;;11.13;8.47;;;13.20;99.90;;;;;;4966913;28;20541;-52
2022/03/21 11:22:37;;;;;;;9.70;8.70;;;13.00;99.90;;;;;;4965738;28;20485;-52
2022/03/21 11:25:05;;;;;;;11.70;9.10;;;13.10;99.90;;;;;;4970556;28;20471;-52
2022/03/21 11:27:57;;;;;;;12.07;9.60;;;12.90;99.90;;;;;;4969745;28;20906;-52
2022/03/21 11:30:34;;;;;;;13.43;8.57;;;13.10;99.90;;;;;;4966525;28;20588;-52
2022/03/21 11:33:12;;;;;;;13.43;9.40;;;13.50;99.90;;;;;;4970852;28;20932;-52
2022/03/21 11:35:44;;;;;;;12.73;8.43;;;13.60;99.90;;;;;;4965693;28;20505;-52
2022/03/21 11:38:24;;;;;;;9.37;8.47;;;13.30;99.90;;;;;;4964703;28;20552;-52
2022/03/21 11:40:51;;;;;;;12.43;7.90;;;13.20;99.90;;;;;;4974840;28;20466;-53
2022/03/21 11:43:29;;;;;;;11.17;8.30;;;12.90;99.90;;;;;;4973978;28;20489;-52
2022/03/21 11:45:57;;;;;;;10.23;7.80;;;12.90;99.90;;;;;;4963500;28;20983;-52
2022/03/21 11:48:34;;;;;;;12.13;8.20;;;13.00;99.90;;;;;;4968033;28;20462;-51
2022/03/21 11:51:23;;;;;;;9.73;8.73;;;13.10;99.90;;;;;;4968284;28;20983;-51
2022/03/21 11:53:51;;;;;;;14.50;8.57;;;13.10;99.90;;;;;;4970338;28;20589;-52
2022/03/21 11:56:18;;;;;;;9.33;8.37;;;13.10;99.90;;;;;;4971565;28;20473;-52
2022/03/21 11:58:47;;;;;;;11.53;8.27;;;12.90;99.90;;;;;;4967230;28;20501;-52
2022/03/21 12:01:24;;;;;;;8.90;7.70;;;13.10;99.90;;;;;;4971716;28;20466;-52
2022/03/21 12:03:51;;;;;;;13.30;8.97;;;13.20;99.90;;;;;;4971591;28;20460;-51
2022/03/21 12:06:23;;;;;;;10.60;9.17;;;12.90;99.90;;;;;;4971706;28;20484;-52
2022/03/21 12:08:54;;;;;;;9.90;8.50;;;12.90;99.90;;;;;;4968135;28;21191;-52
2022/03/21 12:12:01;;;;;;;10.00;7.53;;;12.90;99.90;;;;;;4965693;28;20490;-52
2022/03/21 12:14:40;;;;;;;12.87;8.23;;;13.10;99.90;;;;;;4967138;28;20547;-51
2022/03/21 12:17:30;;;;;;;9.43;8.30;;;13.10;99.90;;;;;;4963121;28;20458;-52
2022/03/21 12:20:11;;;;;;;18.63;8.07;;;13.10;99.90;;;;;;4964451;28;20477;-53
2022/03/21 12:22:39;;;;;;;11.87;7.93;;;13.30;99.90;;;;;;4960539;28;20576;-52
2022/03/21 12:25:09;;;;;;;13.73;8.97;;;13.40;99.90;;;;;;4960177;28;20465;-54
2022/03/21 12:27:38;;;;;;;8.50;7.57;;;13.50;99.90;;;;;;4966575;28;20463;-53
2022/03/21 12:30:37;;;;;;;8.83;7.57;;;13.70;99.90;;;;;;4962966;28;20549;-52
2022/03/21 12:33:24;;;;;;;9.40;8.30;;;14.30;99.90;;;;;;4969737;28;20509;-51
2022/03/21 12:35:58;;;;;;;8.97;7.87;;;14.10;99.90;;;;;;4955875;28;20451;-50
2022/03/21 12:38:26;;;;;;;9.80;8.13;;;14.50;99.90;;;;;;4967889;28;20449;-51
2022/03/21 12:40:58;;;;;;;10.70;7.40;;;14.50;99.90;;;;;;4960117;28;20446;-51
2022/03/21 12:43:26;;;;;;;9.97;8.00;;;15.20;99.90;;;;;;4955138;28;20569;-51
2022/03/21 12:45:58;;;;;;;11.53;7.70;;;15.20;99.90;;;;;;4963193;28;20500;-52
2022/03/21 12:48:30;;;;;;;9.30;7.67;;;15.10;99.90;;;;;;4962887;28;20469;-51
2022/03/21 12:50:57;;;;;;;7.80;6.73;;;14.80;99.90;;;;;;4964824;28;20481;-52
2022/03/21 12:53:25;;;;;;;7.97;6.67;;;14.90;99.90;;;;;;4965501;28;20576;-51
2022/03/21 12:56:00;;;;;;;10.80;7.13;;;14.80;99.90;;;;;;4966887;28;20458;-50
2022/03/21 12:58:27;;;;;;;10.20;7.30;;;14.80;99.90;;;;;;4968605;28;20473;-51
2022/03/21 13:00:56;;;;;;;15.50;7.60;;;14.80;99.90;;;;;;4969467;28;21801;-51
2022/03/21 13:03:23;;;;;;;7.93;7.13;;;15.20;99.90;;;;;;4964141;28;20616;-51
2022/03/21 13:11:22;;;;;;;9.23;7.70;;;15.80;99.90;;;;;;4961034;28;20554;-51
2022/03/21 13:13:53;;;;;;;13.40;8.07;;;15.90;99.90;;;;;;4963765;28;20555;-51